Time;durP1;ratioP1;P1;durP2;ratioP2;P2;SDS_P1;SDS_P2;PMS_P1;PMS_P2;Temp;Humidity;BMP_temperature;BMP_pressure;BME280_temperature;BME280_humidity;BME280_pressure;Samples;Min_cycle;Max_cycle;Signal;HPM_P1;HPM_P2
2022/04/17 00:02:05;;;;;;;;;2.00;2.00;;;;;16.44;35.20;101955.34;5078962;28;45351;-53
2022/04/17 00:04:30;;;;;;;;;4.60;3.00;;;;;16.50;35.40;101959.16;5079151;28;45544;-50
2022/04/17 00:06:56;;;;;;;;;5.00;3.50;;;;;16.42;35.28;101954.72;5078699;28;45823;-54
2022/04/17 00:09:21;;;;;;;;;3.50;3.50;;;;;15.90;35.16;101891.06;5078840;28;45392;-49
2022/04/17 00:11:47;;;;;;;;;2.00;2.00;;;;;16.25;35.72;101946.06;5060989;28;45378;-55
2022/04/17 00:14:12;;;;;;;;;6.50;5.75;;;;;16.29;35.01;101955.66;5079035;28;45341;-51
2022/04/17 00:16:40;;;;;;;;;1.75;1.75;;;;;16.20;35.45;101940.34;5078850;28;45508;-51
2022/04/17 00:19:09;;;;;;;;;2.40;2.40;;;;;15.97;35.12;101922.34;5078545;28;45472;-53
2022/04/17 00:21:34;;;;;;;;;2.00;2.00;;;;;16.13;35.59;101945.94;5060812;28;45431;-52
2022/04/17 00:24:00;;;;;;;;;2.00;2.00;;;;;16.10;35.62;101935.28;5060604;28;45487;-50
2022/04/17 00:26:25;;;;;;;;;2.75;2.75;;;;;16.23;35.89;101945.47;5078276;28;45746;-49
2022/04/17 00:28:51;;;;;;;;;2.75;2.75;;;;;16.22;35.79;101944.59;5066418;27;45450;-51
2022/04/17 00:31:16;;;;;;;;;2.00;2.00;;;;;16.16;35.55;101933.56;5111639;27;45397;-49
2022/04/17 00:33:42;;;;;;;;;2.25;2.25;;;;;16.23;35.01;101942.69;5097933;27;45430;-55
2022/04/17 00:36:07;;;;;;;;;3.50;3.50;;;;;16.19;35.70;101936.75;5098527;27;45710;-50
2022/04/17 00:38:33;;;;;;;;;3.00;2.00;;;;;15.84;35.65;101896.38;5098901;27;45398;-50
2022/04/17 00:40:59;;;;;;;;;3.25;3.00;;;;;15.94;35.46;101909.78;5080324;27;45425;-51
2022/04/17 00:43:25;;;;;;;;;3.00;3.00;;;;;15.97;35.38;101905.75;5099363;27;45607;-51
2022/04/17 00:45:51;;;;;;;;;3.00;3.00;;;;;16.13;35.45;101941.22;5098623;27;45805;-51
2022/04/17 00:48:17;;;;;;;;;2.80;2.80;;;;;16.05;35.13;101935.94;5098702;27;45274;-54
2022/04/17 00:50:44;;;;;;;;;3.00;3.00;;;;;16.03;35.23;101932.56;5080536;27;45301;-51
2022/04/17 00:53:10;;;;;;;;;3.00;3.00;;;;;15.94;35.39;101920.00;5080758;27;45600;-54
2022/04/17 00:55:35;;;;;;;;;4.25;3.75;;;;;16.01;35.85;101931.06;5098691;27;46269;-55
2022/04/17 00:58:01;;;;;;;;;3.50;3.50;;;;;15.95;35.08;101927.28;5098409;27;45471;-50
2022/04/17 01:00:27;;;;;;;;;4.00;3.00;;;;;15.86;35.35;101923.84;5097286;27;45367;-53
2022/04/17 01:02:52;;;;;;;;;3.50;3.00;;;;;15.41;35.45;101855.44;5098358;27;45677;-54
2022/04/17 01:05:19;;;;;;;;;3.25;2.00;;;;;15.68;35.38;101911.56;5097853;27;45440;-51
2022/04/17 01:07:45;;;;;;;;;3.00;3.00;;;;;15.63;35.62;101914.13;5097653;27;45903;-51
2022/04/17 01:10:11;;;;;;;;;2.00;2.00;;;;;15.77;35.81;101919.63;5059970;28;45473;-58
2022/04/17 01:12:37;;;;;;;;;3.00;3.00;;;;;15.45;35.09;101878.84;5059619;28;45742;-50
2022/04/17 01:15:02;;;;;;;;;4.00;3.00;;;;;15.64;35.36;101915.81;5059335;28;45780;-49
2022/04/17 01:17:28;;;;;;;;;3.00;3.00;;;;;15.47;35.40;101920.13;5077641;28;45892;-52
2022/04/17 01:19:54;;;;;;;;;1.50;1.50;;;;;15.10;35.23;101863.38;5077715;28;45376;-50
2022/04/17 01:22:19;;;;;;;;;3.75;3.50;;;;;15.45;35.16;101917.59;5077738;28;45332;-51
2022/04/17 01:27:30;;;;;;;;;2.00;2.00;;;;;15.50;35.61;101892.03;5077166;28;45398;-53
2022/04/17 01:29:55;;;;;;;;;2.40;2.40;;;;;15.56;34.59;101899.47;5077503;28;45526;-52
2022/04/17 01:32:21;;;;;;;;;4.00;2.00;;;;;15.37;35.46;101868.03;5059362;28;45249;-50
2022/04/17 01:34:47;;;;;;;;;2.00;2.00;;;;;15.62;34.92;101895.00;5077346;28;46168;-52
2022/04/17 01:37:13;;;;;;;;;4.25;2.75;;;;;15.57;35.01;101895.63;5076963;28;45350;-50
2022/04/17 01:39:39;;;;;;;;;2.60;2.40;;;;;15.47;34.63;101887.78;5076796;28;45443;-50
2022/04/17 01:42:05;;;;;;;;;2.75;2.75;;;;;15.44;34.76;101896.53;5059275;28;45346;-56
2022/04/17 01:44:30;;;;;;;;;3.75;3.75;;;;;15.28;34.50;101893.16;5077144;28;46437;-50
2022/04/17 01:46:56;;;;;;;;;3.00;3.00;;;;;15.30;34.63;101891.03;5076954;28;45436;-51
2022/04/17 01:49:23;;;;;;;;;3.00;2.00;;;;;15.35;34.73;101883.97;5077106;28;45213;-52
2022/04/17 01:51:51;;;;;;;;;3.00;3.00;;;;;15.23;34.99;101892.09;5076979;28;45305;-53
2022/04/17 01:54:17;;;;;;;;;2.20;2.20;;;;;15.25;34.89;101896.34;5077038;28;46458;-51
2022/04/17 01:56:43;;;;;;;;;3.00;3.00;;;;;15.09;35.08;101867.22;5076570;28;45437;-52
2022/04/17 01:59:09;;;;;;;;;3.50;3.50;;;;;15.29;35.52;101886.56;5077294;28;45378;-51
2022/04/17 02:01:35;;;;;;;;;4.00;4.00;;;;;15.29;34.34;101885.69;5064839;27;46174;-53
2022/04/17 02:04:01;;;;;;;;;6.00;5.00;;;;;15.23;35.10;101894.84;5071143;28;46139;-55
2022/04/17 02:06:27;;;;;;;;;4.75;4.75;;;;;15.14;34.33;101892.31;5075205;28;45314;-50
2022/04/17 02:08:52;;;;;;;;;4.00;4.00;;;;;15.07;34.47;101888.72;5076065;28;45327;-50
2022/04/17 02:11:21;;;;;;;;;6.50;4.00;;;;;15.03;34.28;101882.75;5070200;28;45371;-56
2022/04/17 02:13:48;;;;;;;;;2.80;2.80;;;;;14.97;34.57;101878.09;5058423;28;45552;-52
2022/04/17 02:16:14;;;;;;;;;3.20;3.20;;;;;15.03;34.95;101895.72;5076513;28;45389;-50
2022/04/17 02:18:39;;;;;;;;;3.00;3.00;;;;;14.89;34.43;101853.44;5076882;28;45360;-50
2022/04/17 02:21:05;;;;;;;;;4.00;4.00;;;;;15.14;34.58;101880.41;5077216;28;45433;-50
2022/04/17 02:23:30;;;;;;;;;4.00;4.00;;;;;15.11;33.83;101878.91;5076972;28;46074;-51
2022/04/17 02:25:56;;;;;;;;;5.25;4.25;;;;;15.06;34.03;101870.44;5076461;28;45316;-54
2022/04/17 02:28:21;;;;;;;;;4.75;3.00;;;;;15.01;34.24;101873.81;5076909;28;45435;-49
2022/04/17 02:30:47;;;;;;;;;3.00;3.00;;;;;14.71;33.81;101841.06;5077148;28;45228;-53
2022/04/17 02:33:12;;;;;;;;;4.75;3.50;;;;;14.91;33.92;101863.19;5075877;28;45980;-53
2022/04/17 02:35:38;;;;;;;;;3.50;3.50;;;;;14.92;33.90;101866.81;5058486;28;45244;-51
2022/04/17 02:38:04;;;;;;;;;3.75;3.75;;;;;14.95;33.78;101862.78;5058284;28;45243;-52
2022/04/17 02:40:29;;;;;;;;;4.00;2.00;;;;;14.90;33.74;101863.44;5076740;28;45348;-50
2022/04/17 02:42:55;;;;;;;;;4.00;3.00;;;;;14.74;33.65;101848.97;5075996;28;45860;-51
2022/04/17 02:45:20;;;;;;;;;3.50;2.25;;;;;14.82;34.09;101861.72;5076696;28;45352;-55
2022/04/17 02:47:48;;;;;;;;;4.00;3.00;;;;;14.86;34.39;101856.63;5058190;28;45374;-54
2022/04/17 02:50:15;;;;;;;;;4.40;3.00;;;;;14.79;34.52;101859.41;5076561;28;45336;-54
2022/04/17 02:52:41;;;;;;;;;2.80;2.80;;;;;14.77;34.06;101861.50;5076053;28;46922;-58
2022/04/17 02:55:06;;;;;;;;;5.50;5.00;;;;;14.43;33.88;101824.69;5076368;28;46010;-52
2022/04/17 02:57:32;;;;;;;;;3.50;3.50;;;;;14.63;34.11;101853.19;5076283;28;45344;-49
2022/04/17 02:59:58;;;;;;;;;3.00;2.75;;;;;14.45;34.02;101817.91;5076250;28;45311;-50
2022/04/17 03:07:52;;;;;;;;;2.40;2.40;;;;;14.36;34.08;101800.69;5075587;28;45553;-53
2022/04/17 03:10:17;;;;;;;;;3.00;3.00;;;;;14.61;33.99;101843.41;5076013;28;45393;-48
2022/04/17 03:12:43;;;;;;;;;4.00;3.25;;;;;14.55;33.41;101838.72;5075794;28;46134;-55
2022/04/17 03:15:09;;;;;;;;;3.50;3.00;;;;;14.47;34.47;101843.41;5057367;28;45365;-50
2022/04/17 03:17:35;;;;;;;;;3.80;3.80;;;;;14.47;34.42;101846.16;5091204;27;45331;-52
2022/04/17 03:20:00;;;;;;;;;2.50;2.25;;;;;14.39;34.21;101820.66;5076037;28;45351;-55
2022/04/17 03:22:26;;;;;;;;;3.25;2.00;;;;;14.27;34.16;101799.22;5075257;28;46508;-51
2022/04/17 03:24:51;;;;;;;;;4.00;4.00;;;;;14.23;34.92;101801.53;5040161;28;45632;-50
2022/04/17 03:27:17;;;;;;;;;3.00;3.00;;;;;14.47;34.44;101839.81;5075393;28;45254;-53
2022/04/17 03:29:43;;;;;;;;;6.00;4.00;;;;;14.37;34.36;101841.06;5076090;28;45396;-52
2022/04/17 03:32:09;;;;;;;;;3.00;3.00;;;;;14.34;34.56;101833.19;5091255;27;45443;-52
2022/04/17 03:34:34;;;;;;;;;4.00;3.25;;;;;14.20;34.08;101828.72;5090874;27;45444;-46
2022/04/17 03:36:59;;;;;;;;;2.50;2.50;;;;;14.25;34.48;101836.38;5057697;28;45319;-51
2022/04/17 03:39:25;;;;;;;;;3.50;3.50;;;;;13.96;34.28;101793.22;5075550;28;45329;-51
2022/04/17 03:41:54;;;;;;;;;4.00;3.00;;;;;14.16;34.56;101836.59;5075209;28;45918;-53
2022/04/17 03:44:20;;;;;;;;;4.00;3.00;;;;;13.73;34.76;101765.13;5075473;28;45920;-50
2022/04/17 03:46:47;;;;;;;;;3.00;3.00;;;;;14.09;34.67;101833.78;5075775;28;45329;-54
2022/04/17 03:49:13;;;;;;;;;4.00;3.40;;;;;14.07;34.45;101846.09;5075352;28;45317;-54
2022/04/17 03:51:39;;;;;;;;;3.00;3.00;;;;;13.65;34.85;101774.44;5056804;28;45399;-55
2022/04/17 03:54:05;;;;;;;;;4.00;3.00;;;;;14.01;34.45;101833.13;5057412;28;45422;-57
2022/04/17 03:56:30;;;;;;;;;4.75;4.75;;;;;13.87;34.46;101813.78;5075063;27;45620;-51
2022/04/17 03:58:56;;;;;;;;;4.00;4.00;;;;;13.84;34.64;101819.72;5057314;28;45711;-54
2022/04/17 04:01:21;;;;;;;;;3.50;3.50;;;;;13.89;35.13;101824.59;5052123;27;46352;-52
2022/04/17 04:03:47;;;;;;;;;3.50;3.50;;;;;13.91;34.62;101828.00;4988679;28;45498;-50
2022/04/17 04:06:13;;;;;;;;;4.40;4.00;;;;;13.86;34.83;101817.59;5055144;28;45334;-52
2022/04/17 04:08:39;;;;;;;;;4.25;3.00;;;;;13.80;34.75;101822.03;5054744;28;45339;-53
2022/04/17 04:11:05;;;;;;;;;6.00;6.00;;;;;13.75;34.76;101815.44;5055039;28;46818;-49
2022/04/17 04:13:32;;;;;;;;;5.00;4.00;;;;;13.68;35.27;101816.25;5086876;27;45397;-53
2022/04/17 04:15:58;;;;;;;;;4.80;3.60;;;;;13.74;35.01;101814.59;5054691;28;45457;-55
2022/04/17 04:18:24;;;;;;;;;4.00;4.00;;;;;13.77;34.81;101819.69;5055064;28;45571;-52
2022/04/17 04:20:49;;;;;;;;;6.50;5.50;;;;;13.77;34.33;101818.84;5053618;28;45411;-52
2022/04/17 04:23:15;;;;;;;;;5.75;4.75;;;;;13.68;34.41;101819.00;5054502;28;45352;-52
2022/04/17 04:25:40;;;;;;;;;4.00;4.00;;;;;13.61;34.56;101820.91;5054778;28;45258;-51
2022/04/17 04:30:50;;;;;;;;;3.00;3.00;;;;;13.58;34.84;101806.66;5054334;28;45821;-54
2022/04/17 04:33:16;;;;;;;;;2.75;2.00;;;;;13.29;34.91;101766.22;5054438;28;45411;-50
2022/04/17 04:35:41;;;;;;;;;3.00;3.00;;;;;13.48;34.86;101798.78;5056996;28;45306;-52
2022/04/17 04:38:07;;;;;;;;;3.00;3.00;;;;;13.56;35.06;101812.41;5058186;28;45458;-49
2022/04/17 04:40:33;;;;;;;;;3.50;3.50;;;;;13.60;34.43;101799.06;5057635;28;45853;-51
2022/04/17 04:43:01;;;;;;;;;2.00;2.00;;;;;13.54;34.91;101804.34;5057901;28;45408;-54
2022/04/17 04:48:10;;;;;;;;;3.20;3.20;;;;;13.60;34.81;101801.81;5057932;28;45403;-55
2022/04/17 04:50:36;;;;;;;;;2.75;2.75;;;;;13.28;34.87;101763.66;5039450;28;47945;-54
2022/04/17 04:53:02;;;;;;;;;2.25;2.00;;;;;13.27;34.76;101760.06;5057600;28;45599;-49
2022/04/17 04:55:28;;;;;;;;;4.50;4.50;;;;;13.28;35.36;101775.56;5058046;28;45421;-49
2022/04/17 04:57:53;;;;;;;;;4.60;3.20;;;;;13.57;34.71;101811.34;5057472;28;46049;-50
2022/04/17 05:00:19;;;;;;;;;3.50;2.00;;;;;13.59;34.74;101806.47;5057720;28;45940;-49
2022/04/17 05:02:44;;;;;;;;;2.75;2.75;;;;;13.64;34.30;101823.25;5057749;28;45372;-51
2022/04/17 05:05:10;;;;;;;;;6.00;5.25;;;;;13.59;34.27;101814.75;5040377;28;45574;-52
2022/04/17 05:07:36;;;;;;;;;2.00;2.00;;;;;13.59;34.61;101812.00;5056984;28;45564;-56
2022/04/17 05:10:02;;;;;;;;;4.80;3.00;;;;;13.30;34.69;101769.84;5057751;28;46035;-53
2022/04/17 05:12:28;;;;;;;;;3.00;3.00;;;;;13.45;34.44;101815.72;5056828;28;45418;-50
2022/04/17 05:14:54;;;;;;;;;4.00;4.00;;;;;13.11;34.81;101774.19;5057220;28;45368;-51
2022/04/17 05:17:19;;;;;;;;;5.40;4.00;;;;;13.40;34.82;101825.44;5057885;28;45287;-50
2022/04/17 05:19:45;;;;;;;;;2.50;1.75;;;;;13.39;34.69;101815.47;5057302;28;45655;-56
2022/04/17 05:22:15;;;;;;;;;3.00;3.00;;;;;13.29;34.46;101817.78;5056363;28;45274;-54
2022/04/17 05:24:42;;;;;;;;;5.00;5.00;;;;;13.27;34.32;101833.66;5057694;28;45389;-49
2022/04/17 05:27:07;;;;;;;;;5.00;3.60;;;;;13.19;34.82;101825.56;5057819;28;45259;-55
2022/04/17 05:29:33;;;;;;;;;3.25;3.25;;;;;13.41;34.99;101837.34;5057262;28;45551;-55
2022/04/17 05:31:59;;;;;;;;;5.75;4.50;;;;;13.13;34.65;101770.16;5057669;28;45371;-51
2022/04/17 05:34:25;;;;;;;;;6.20;2.60;;;;;13.59;34.37;101836.81;5057668;28;45485;-53
2022/04/17 05:36:50;;;;;;;;;3.00;3.00;;;;;13.58;34.37;101835.13;5057718;28;45240;-53
2022/04/17 05:39:16;;;;;;;;;4.00;3.50;;;;;13.25;34.32;101794.41;5057142;28;46069;-53
2022/04/17 05:41:41;;;;;;;;;5.00;3.00;;;;;13.54;34.48;101836.56;5057582;28;45385;-58
2022/04/17 05:44:07;;;;;;;;;2.50;2.50;;;;;13.39;34.35;101809.09;5039460;28;45803;-57
2022/04/17 05:46:35;;;;;;;;;4.00;4.00;;;;;13.29;34.27;101818.59;5055821;28;45791;-52
2022/04/17 05:49:04;;;;;;;;;3.80;3.80;;;;;13.34;34.61;101841.97;5039331;28;46755;-58
2022/04/17 05:51:31;;;;;;;;;2.00;2.00;;;;;13.17;34.94;101791.84;5057480;28;45244;-56
2022/04/17 05:53:58;;;;;;;;;4.60;3.20;;;;;13.31;34.67;101798.25;5057027;28;45611;-52
2022/04/17 05:56:23;;;;;;;;;4.20;4.00;;;;;13.48;34.21;101829.97;5057810;28;45629;-52
2022/04/17 05:58:49;;;;;;;;;4.50;4.50;;;;;13.44;34.21;101814.84;5057071;28;46021;-61
2022/04/17 06:01:14;;;;;;;;;4.50;4.50;;;;;13.60;34.31;101829.41;5055195;28;45442;-57
2022/04/17 06:03:40;;;;;;;;;2.50;2.50;;;;;13.50;33.75;101832.53;5057210;28;45408;-59
2022/04/17 06:06:05;;;;;;;;;4.00;3.75;;;;;13.36;34.43;101806.75;5056937;28;45308;-53
2022/04/17 06:08:31;;;;;;;;;6.25;6.00;;;;;13.58;34.12;101837.88;5056327;28;46461;-55
2022/04/17 06:10:57;;;;;;;;;3.00;3.00;;;;;13.57;33.84;101843.59;5057106;28;45454;-57
2022/04/17 06:13:23;;;;;;;;;3.40;2.20;;;;;13.62;34.81;101839.19;5056847;28;45360;-52
2022/04/17 06:15:48;;;;;;;;;5.75;5.75;;;;;13.61;33.60;101831.94;5055912;28;46079;-54
2022/04/17 06:18:14;;;;;;;;;5.00;5.00;;;;;13.34;33.69;101831.78;5029234;28;45511;-50
2022/04/17 06:20:39;;;;;;;;;4.25;4.00;;;;;13.38;33.93;101844.09;5053069;28;45390;-50
2022/04/17 06:23:05;;;;;;;;;4.25;3.25;;;;;13.33;33.56;101843.84;5056810;28;45331;-55
2022/04/17 06:25:30;;;;;;;;;3.75;3.25;;;;;13.16;34.26;101813.03;5056527;28;45539;-55
2022/04/17 06:27:56;;;;;;;;;2.25;2.25;;;;;13.46;34.08;101842.25;5056316;28;45970;-60
2022/04/17 06:30:21;;;;;;;;;3.75;3.75;;;;;13.48;33.80;101834.63;5056170;27;45416;-57
2022/04/17 06:32:47;;;;;;;;;4.50;3.00;;;;;13.49;33.57;101828.06;5056789;28;45373;-54
2022/04/17 06:35:13;;;;;;;;;3.75;3.75;;;;;13.50;33.99;101832.53;5056285;28;45433;-56
2022/04/17 06:37:52;;;;;;;;;2.60;2.60;;;;;13.38;34.11;101813.78;5056300;28;46229;-59
2022/04/17 06:40:32;;;;;;;;;4.20;3.40;;;;;13.57;33.79;101840.81;5056055;28;45385;-54
2022/04/17 06:42:58;;;;;;;;;5.20;4.20;;;;;13.59;33.77;101827.66;5056622;28;45309;-57
2022/04/17 06:45:25;;;;;;;;;6.00;4.80;;;;;13.46;33.79;101800.91;5056283;28;45421;-51
2022/04/17 06:47:50;;;;;;;;;6.40;6.40;;;;;13.53;33.05;101812.81;5055956;27;46834;-56
2022/04/17 06:50:16;;;;;;;;;7.50;5.75;;;;;13.67;33.66;101830.28;5055851;28;45478;-53
2022/04/17 06:52:42;;;;;;;;;4.75;4.75;;;;;13.70;33.54;101835.38;5055788;28;45504;-51
2022/04/17 06:55:11;;;;;;;;;4.00;4.00;;;;;13.45;33.48;101788.13;5056285;28;45327;-51
2022/04/17 06:57:37;;;;;;;;;5.20;4.00;;;;;13.69;33.93;101831.78;5055596;28;45451;-51
2022/04/17 07:00:07;;;;;;;;;10.00;7.20;;;;;13.69;33.72;101815.22;5055590;28;45350;-54
2022/04/17 07:02:32;;;;;;;;;4.60;3.00;;;;;13.44;33.17;101794.72;5055505;28;45290;-51
2022/04/17 07:04:58;;;;;;;;;4.50;3.00;;;;;13.54;34.04;101811.75;5088528;27;45324;-55
2022/04/17 07:07:23;;;;;;;;;4.50;4.25;;;;;12.86;34.00;101692.03;5054500;28;45386;-53
2022/04/17 07:09:49;;;;;;;;;5.00;5.00;;;;;13.56;34.26;101804.13;5053921;28;45397;-50
2022/04/17 07:12:16;;;;;;;;;5.25;5.25;;;;;13.65;33.65;101800.13;5055916;28;45392;-53
2022/04/17 07:14:41;;;;;;;;;6.00;4.40;;;;;13.56;33.58;101801.38;5055852;28;45448;-55
2022/04/17 07:17:07;;;;;;;;;6.50;4.75;;;;;13.63;33.90;101802.25;5055575;28;46078;-50
2022/04/17 07:19:32;;;;;;;;;5.50;4.75;;;;;13.61;33.79;101789.72;5055236;28;45390;-55
2022/04/17 07:21:58;;;;;;;;;8.25;5.50;;;;;13.69;34.14;101787.63;5055739;28;45488;-50
2022/04/17 07:24:24;;;;;;;;;5.75;5.75;;;;;13.64;33.42;101787.41;5055961;28;45658;-53
2022/04/17 07:26:53;;;;;;;;;4.60;4.00;;;;;13.37;33.76;101753.31;5055180;28;45476;-52
2022/04/17 07:29:22;;;;;;;;;6.60;5.40;;;;;13.66;34.03;101801.00;5055080;28;45353;-51
2022/04/17 07:31:51;;;;;;;;;5.20;5.20;;;;;13.76;34.04;101795.09;5055118;28;45549;-50
2022/04/17 07:34:18;;;;;;;;;6.00;5.40;;;;;13.71;34.18;101792.09;5055725;28;45389;-50
2022/04/17 07:36:44;;;;;;;;;5.00;5.00;;;;;13.77;34.18;101792.09;5055130;28;46563;-56
2022/04/17 07:39:10;;;;;;;;;5.80;5.80;;;;;13.63;34.17;101769.16;5055014;28;45344;-56
2022/04/17 07:41:36;;;;;;;;;5.00;4.00;;;;;13.72;34.01;101777.22;5055368;28;45318;-49
2022/04/17 07:44:01;;;;;;;;;5.75;4.75;;;;;13.65;34.24;101756.00;5055252;28;45267;-50
2022/04/17 07:46:26;;;;;;;;;4.75;4.75;;;;;13.90;34.25;101780.25;5055236;28;46244;-50
2022/04/17 07:48:52;;;;;;;;;6.00;5.00;;;;;13.95;33.82;101786.00;5054817;28;45368;-50
2022/04/17 07:51:17;;;;;;;;;7.00;4.25;;;;;14.01;33.66;101780.69;5055242;28;45292;-52
2022/04/17 07:53:43;;;;;;;;;5.75;5.50;;;;;14.00;34.11;101765.19;5055327;28;45569;-50
2022/04/17 07:56:10;;;;;;;;;6.00;6.00;;;;;14.13;34.07;101775.41;5054748;28;45461;-57
2022/04/17 07:58:37;;;;;;;;;6.20;6.20;;;;;13.93;33.41;101745.88;5054997;28;45405;-54
2022/04/17 08:01:11;;;;;;;;;4.40;4.00;;;;;14.19;33.54;101766.28;5054701;28;45809;-54
2022/04/17 08:06:06;;;;;;;;;6.80;4.40;;;;;14.29;33.67;101763.94;5017246;28;46382;-56
2022/04/17 08:08:32;;;;;;;;;5.25;5.00;;;;;14.37;33.78;101766.47;5054798;28;45750;-57
2022/04/17 08:10:57;;;;;;;;;6.20;4.80;;;;;14.22;32.52;101718.91;5039934;28;45731;-53
2022/04/17 08:13:23;;;;;;;;;7.00;6.00;;;;;14.45;33.25;101764.56;5058137;28;45541;-55
2022/04/17 08:15:50;;;;;;;;;4.75;3.50;;;;;14.10;32.61;101704.91;5057980;28;46611;-55
2022/04/17 08:18:16;;;;;;;;;6.60;6.60;;;;;14.50;32.39;101753.72;5056451;28;45466;-56
2022/04/17 08:20:41;;;;;;;;;5.50;5.50;;;;;14.42;32.34;101732.72;5057113;28;45380;-52
2022/04/17 08:23:07;;;;;;;;;5.00;5.00;;;;;14.48;32.33;101745.66;5058656;28;45828;-54
2022/04/17 08:25:35;;;;;;;;;4.00;4.00;;;;;14.39;32.26;101710.19;5058393;28;46034;-56
2022/04/17 08:28:02;;;;;;;;;3.00;3.00;;;;;14.44;32.72;101713.16;5056914;28;45388;-55
2022/04/17 08:30:31;;;;;;;;;5.20;5.20;;;;;14.71;31.95;101733.31;5056719;28;45380;-56
2022/04/17 08:33:00;;;;;;;;;4.40;4.40;;;;;14.82;31.41;101737.34;5072811;28;45444;-57
2022/04/17 08:35:25;;;;;;;;;6.60;6.60;;;;;14.87;31.38;101737.56;5058060;28;46702;-55
2022/04/17 08:37:52;;;;;;;;;6.50;6.00;;;;;14.93;31.05;101737.78;5091058;27;45312;-58
2022/04/17 08:40:17;;;;;;;;;5.00;3.80;;;;;14.76;30.58;101699.53;5058053;28;45325;-50
2022/04/17 08:42:44;;;;;;;;;6.25;6.25;;;;;15.08;30.79;101737.47;5058300;28;45513;-57
2022/04/17 08:45:10;;;;;;;;;6.60;5.00;;;;;15.16;30.67;101740.03;5055995;28;46308;-57
2022/04/17 08:47:37;;;;;;;;;5.00;5.00;;;;;15.24;30.71;101737.00;5056026;28;45612;-56
2022/04/17 08:50:08;;;;;;;;;5.40;4.20;;;;;15.21;29.64;101729.13;5058128;28;45415;-55
2022/04/17 08:52:34;;;;;;;;;4.60;4.60;;;;;15.04;29.45;101696.47;5090361;27;45487;-52
2022/04/17 08:55:00;;;;;;;;;5.75;5.00;;;;;15.28;29.68;101735.53;5057384;28;46484;-57
2022/04/17 08:57:26;;;;;;;;;6.00;5.00;;;;;15.17;29.62;101695.56;5055030;28;45447;-54
2022/04/17 08:59:51;;;;;;;;;7.00;4.50;;;;;15.49;29.82;101738.19;5072592;28;45346;-55
2022/04/17 09:02:18;;;;;;;;;5.00;4.00;;;;;15.56;28.46;101736.22;5038349;28;45608;-50
2022/04/17 09:04:44;;;;;;;;;2.80;2.80;;;;;15.53;27.46;101720.06;5055493;28;46866;-53
2022/04/17 09:07:11;;;;;;;;;4.00;4.00;;;;;15.63;28.38;101730.66;5056526;28;45301;-51
2022/04/17 09:09:47;;;;;;;;;3.00;3.00;;;;;15.68;28.77;101726.16;5045519;28;45765;-50
2022/04/17 09:12:23;;;;;;;;;7.20;5.40;;;;;15.52;28.95;101686.00;5056904;28;45786;-51
2022/04/17 09:14:49;;;;;;;;;5.40;3.80;;;;;15.86;29.14;101719.00;5056165;28;47286;-56
2022/04/17 09:17:15;;;;;;;;;6.00;4.00;;;;;15.67;29.18;101676.56;5055737;28;45323;-54
2022/04/17 09:19:41;;;;;;;;;5.40;3.20;;;;;15.80;27.82;101689.47;5056328;28;45715;-49
2022/04/17 09:22:08;;;;;;;;;3.40;3.40;;;;;15.94;28.21;101693.00;5054834;28;45441;-52
2022/04/17 09:24:37;;;;;;;;;3.20;3.00;;;;;15.86;27.25;101656.19;5053878;28;46604;-52
2022/04/17 09:27:03;;;;;;;;;3.00;3.00;;;;;16.21;27.69;101704.72;5054396;28;45653;-53
2022/04/17 09:29:33;;;;;;;;;3.80;2.80;;;;;16.25;26.94;101689.34;5055643;28;45381;-56
2022/04/17 09:32:06;;;;;;;;;3.00;3.00;;;;;16.30;26.97;101705.28;5054398;28;45141;-56
2022/04/17 09:34:52;;;;;;;;;3.00;3.00;;;;;16.35;27.06;101699.91;5054593;28;46306;-55
2022/04/17 09:37:27;;;;;;;;;3.00;3.00;;;;;16.43;27.21;101709.00;5089400;27;45672;-53
2022/04/17 09:39:53;;;;;;;;;2.60;2.60;;;;;16.34;27.04;101676.03;5056452;28;45429;-55
2022/04/17 09:42:25;;;;;;;;;5.50;3.00;;;;;16.52;27.30;101697.41;5055854;28;45584;-54
2022/04/17 09:44:54;;;;;;;;;2.60;2.60;;;;;16.54;27.18;101686.06;5054821;28;45432;-56
2022/04/17 09:47:22;;;;;;;;;4.40;3.40;;;;;16.18;26.97;101626.78;5056431;28;45419;-54
2022/04/17 09:50:06;;;;;;;;;5.80;4.60;;;;;16.54;27.07;101669.44;5056038;28;45452;-56
2022/04/17 09:52:41;;;;;;;;;5.80;4.20;;;;;16.63;27.08;101679.16;5056890;28;45381;-51
2022/04/17 09:55:06;;;;;;;;;2.00;2.00;;;;;16.69;27.57;101671.00;5055762;28;45286;-55
2022/04/17 09:57:39;;;;;;;;;4.50;3.75;;;;;16.73;27.74;101677.75;5055094;28;45484;-60
2022/04/17 10:00:16;;;;;;;;;3.20;3.00;;;;;16.82;27.10;101664.44;5056170;28;45381;-52
2022/04/17 10:02:43;;;;;;;;;5.40;3.80;;;;;16.89;28.27;101657.75;5055576;28;45281;-52
2022/04/17 10:05:10;;;;;;;;;4.40;4.40;;;;;16.96;27.20;101665.13;5056295;28;45390;-53
2022/04/17 10:07:37;;;;;;;;;2.00;2.00;;;;;16.96;26.95;101656.81;5054906;28;45386;-54
2022/04/17 10:10:07;;;;;;;;;3.00;3.00;;;;;17.01;27.41;101652.25;5045820;28;45533;-54
2022/04/17 10:12:35;;;;;;;;;4.40;4.00;;;;;17.07;27.41;101650.50;5056595;28;45428;-56
2022/04/17 10:15:04;;;;;;;;;5.00;3.00;;;;;17.10;27.64;101651.97;5056240;28;45430;-55
2022/04/17 10:17:30;;;;;;;;;4.60;4.60;;;;;17.11;27.39;101646.19;5056026;28;45325;-54
2022/04/17 10:19:58;;;;;;;;;3.25;3.25;;;;;17.11;27.11;101635.09;5056323;28;45346;-52
2022/04/17 10:22:23;;;;;;;;;4.20;3.60;;;;;17.25;27.94;101637.69;5053790;28;45469;-53
2022/04/17 10:24:52;;;;;;;;;1.75;1.75;;;;;17.14;27.76;101600.50;5088541;27;46711;-53
2022/04/17 10:27:25;;;;;;;;;5.00;5.00;;;;;17.44;27.22;101633.78;5055941;28;45464;-53
2022/04/17 10:30:15;;;;;;;;;4.80;3.80;;;;;17.51;27.51;101635.59;5055903;28;45776;-53
2022/04/17 10:33:02;;;;;;;;;3.00;3.00;;;;;17.55;27.15;101632.09;5054718;27;45330;-53
2022/04/17 10:35:49;;;;;;;;;5.00;4.60;;;;;17.61;26.60;101616.44;5055666;28;45250;-56
2022/04/17 10:38:21;;;;;;;;;3.60;3.20;;;;;17.44;26.81;101586.59;5055509;28;45459;-52
2022/04/17 10:41:19;;;;;;;;;5.00;4.00;;;;;17.76;26.73;101607.66;5055557;28;45426;-53
2022/04/17 10:43:50;;;;;;;;;4.00;4.00;;;;;17.68;26.10;101583.03;5031994;28;45348;-54
2022/04/17 10:46:17;;;;;;;;;3.20;3.00;;;;;17.88;25.85;101600.16;5054226;28;47641;-58
2022/04/17 10:48:43;;;;;;;;;4.00;3.00;;;;;18.05;26.20;101604.16;5053841;28;45366;-58
2022/04/17 10:51:15;;;;;;;;;3.20;2.40;;;;;18.12;25.65;101599.38;5054296;28;45387;-53
2022/04/17 10:54:10;;;;;;;;;4.60;2.60;;;;;18.24;25.96;101596.56;5055908;28;45373;-54
2022/04/17 10:56:54;;;;;;;;;5.00;3.60;;;;;18.36;25.43;101594.63;5042731;28;45382;-54
2022/04/17 10:59:27;;;;;;;;;3.00;3.00;;;;;18.29;25.66;101568.91;5053820;28;45387;-54
2022/04/17 11:02:15;;;;;;;;;2.80;2.80;;;;;18.42;25.66;101570.59;5055689;28;45395;-56
2022/04/17 11:05:02;;;;;;;;;3.00;3.00;;;;;18.66;24.87;101579.72;5029843;28;45323;-55
2022/04/17 11:07:29;;;;;;;;;3.00;3.00;;;;;18.71;24.98;101578.97;5049452;28;45384;-52
2022/04/17 11:10:08;;;;;;;;;4.20;4.00;;;;;18.75;25.14;101568.19;5047673;28;45343;-51
2022/04/17 11:12:46;;;;;;;;;2.80;2.80;;;;;18.90;24.36;101571.25;5057426;28;45176;-53
2022/04/17 11:15:11;;;;;;;;;4.60;3.60;;;;;18.81;24.87;101525.50;5024098;28;45889;-55
2022/04/17 11:17:38;;;;;;;;;4.50;4.50;;;;;18.71;25.02;101503.91;5074905;28;46882;-54
2022/04/17 11:20:05;;;;;;;;;2.80;2.80;;;;;19.15;25.43;101556.19;5075820;28;45491;-56
2022/04/17 11:22:34;;;;;;;;;7.40;5.40;;;;;19.19;24.39;101545.41;5057711;28;45413;-57
2022/04/17 11:25:02;;;;;;;;;4.00;4.00;;;;;19.28;24.29;101546.69;5076420;28;45231;-55
2022/04/17 11:27:42;;;;;;;;;5.80;4.80;;;;;19.45;24.22;101555.06;5057204;28;45391;-57
2022/04/17 11:30:13;;;;;;;;;4.00;4.00;;;;;19.52;24.16;101548.47;5075529;28;45256;-52
2022/04/17 11:32:39;;;;;;;;;2.60;2.40;;;;;19.56;23.42;101539.38;5075834;28;45345;-54
2022/04/17 11:35:08;;;;;;;;;6.00;4.50;;;;;19.70;24.36;101528.72;5076256;28;45543;-51
2022/04/17 11:37:34;;;;;;;;;3.80;2.80;;;;;19.80;23.60;101527.19;5057368;28;46907;-52
2022/04/17 11:40:13;;;;;;;;;5.00;5.00;;;;;19.73;23.12;101493.94;5075901;28;45337;-51
2022/04/17 11:42:44;;;;;;;;;3.40;3.40;;;;;19.69;22.88;101476.06;5057877;28;45553;-50